sensor_id;sensor_type;location;lat;lon;timestamp;P1;durP1;ratioP1;P2;durP2;ratioP2
12888;SDS011;56848;49.896;11.424;2022-10-31T05:02:24;68.30;;;4.80;;
12888;SDS011;56848;49.896;11.424;2022-10-31T05:04:49;38.40;;;5.30;;
12888;SDS011;56848;49.896;11.424;2022-10-31T05:07:15;46.70;;;4.97;;
12888;SDS011;56848;49.896;11.424;2022-10-31T05:09:40;37.77;;;4.37;;
12888;SDS011;56848;49.896;11.424;2022-10-31T05:12:06;42.87;;;4.67;;
12888;SDS011;56848;49.896;11.424;2022-10-31T05:17:05;34.60;;;4.60;;
12888;SDS011;56848;49.896;11.424;2022-10-31T05:19:31;31.80;;;4.17;;
12888;SDS011;56848;49.896;11.424;2022-10-31T05:21:56;9.30;;;3.70;;
12888;SDS011;56848;49.896;11.424;2022-10-31T05:24:22;10.23;;;4.30;;
12888;SDS011;56848;49.896;11.424;2022-10-31T05:26:48;31.67;;;4.97;;
12888;SDS011;56848;49.896;11.424;2022-10-31T05:29:14;17.77;;;4.43;;
12888;SDS011;56848;49.896;11.424;2022-10-31T05:31:39;39.87;;;4.73;;
12888;SDS011;56848;49.896;11.424;2022-10-31T05:34:05;10.73;;;4.47;;
12888;SDS011;56848;49.896;11.424;2022-10-31T05:36:31;29.33;;;3.83;;
12888;SDS011;56848;49.896;11.424;2022-10-31T05:38:56;8.63;;;4.53;;
12888;SDS011;56848;49.896;11.424;2022-10-31T05:41:22;17.00;;;4.90;;
12888;SDS011;56848;49.896;11.424;2022-10-31T05:43:47;4.20;;;3.60;;
12888;SDS011;56848;49.896;11.424;2022-10-31T05:46:13;20.23;;;4.90;;
12888;SDS011;56848;49.896;11.424;2022-10-31T05:48:38;29.20;;;6.23;;
12888;SDS011;56848;49.896;11.424;2022-10-31T05:51:04;46.77;;;5.60;;
12888;SDS011;56848;49.896;11.424;2022-10-31T05:53:30;25.87;;;5.67;;
12888;SDS011;56848;49.896;11.424;2022-10-31T05:55:56;44.60;;;7.10;;
12888;SDS011;56848;49.896;11.424;2022-10-31T05:58:22;42.07;;;10.67;;
12888;SDS011;56848;49.896;11.424;2022-10-31T06:00:47;44.87;;;8.40;;
12888;SDS011;56848;49.896;11.424;2022-10-31T06:03:13;20.40;;;8.53;;
12888;SDS011;56848;49.896;11.424;2022-10-31T06:05:38;12.20;;;6.47;;
12888;SDS011;56848;49.896;11.424;2022-10-31T06:08:04;20.03;;;6.80;;
12888;SDS011;56848;49.896;11.424;2022-10-31T06:10:30;22.40;;;7.60;;
12888;SDS011;56848;49.896;11.424;2022-10-31T06:12:55;33.37;;;8.23;;
12888;SDS011;56848;49.896;11.424;2022-10-31T06:15:21;34.87;;;7.00;;
12888;SDS011;56848;49.896;11.424;2022-10-31T06:17:47;21.03;;;5.50;;
12888;SDS011;56848;49.896;11.424;2022-10-31T06:20:26;46.10;;;6.97;;
12888;SDS011;56848;49.896;11.424;2022-10-31T06:22:51;43.33;;;6.80;;
12888;SDS011;56848;49.896;11.424;2022-10-31T06:25:17;21.93;;;6.40;;
12888;SDS011;56848;49.896;11.424;2022-10-31T06:27:43;44.57;;;5.90;;
12888;SDS011;56848;49.896;11.424;2022-10-31T06:30:08;8.20;;;5.00;;
12888;SDS011;56848;49.896;11.424;2022-10-31T06:32:34;10.60;;;4.90;;
12888;SDS011;56848;49.896;11.424;2022-10-31T06:35:00;10.40;;;5.13;;
12888;SDS011;56848;49.896;11.424;2022-10-31T06:37:25;49.90;;;8.50;;
12888;SDS011;56848;49.896;11.424;2022-10-31T06:39:51;18.03;;;9.20;;
12888;SDS011;56848;49.896;11.424;2022-10-31T06:42:16;32.17;;;10.50;;
12888;SDS011;56848;49.896;11.424;2022-10-31T06:44:42;38.33;;;13.83;;
12888;SDS011;56848;49.896;11.424;2022-10-31T06:47:08;30.23;;;13.10;;
12888;SDS011;56848;49.896;11.424;2022-10-31T06:49:33;42.70;;;12.60;;
12888;SDS011;56848;49.896;11.424;2022-10-31T06:51:59;66.57;;;10.97;;
12888;SDS011;56848;49.896;11.424;2022-10-31T06:54:24;48.67;;;10.77;;
12888;SDS011;56848;49.896;11.424;2022-10-31T06:56:50;40.80;;;9.03;;
12888;SDS011;56848;49.896;11.424;2022-10-31T06:59:15;47.83;;;7.47;;
12888;SDS011;56848;49.896;11.424;2022-10-31T07:01:41;17.30;;;7.40;;
12888;SDS011;56848;49.896;11.424;2022-10-31T07:04:08;41.70;;;7.97;;
12888;SDS011;56848;49.896;11.424;2022-10-31T07:06:34;14.80;;;6.73;;
12888;SDS011;56848;49.896;11.424;2022-10-31T07:09:00;18.00;;;7.70;;
12888;SDS011;56848;49.896;11.424;2022-10-31T07:11:26;12.63;;;8.53;;
12888;SDS011;56848;49.896;11.424;2022-10-31T07:13:51;31.93;;;9.57;;
12888;SDS011;56848;49.896;11.424;2022-10-31T07:16:17;63.73;;;8.77;;
12888;SDS011;56848;49.896;11.424;2022-10-31T07:18:42;18.07;;;7.80;;
12888;SDS011;56848;49.896;11.424;2022-10-31T07:21:08;38.43;;;8.73;;
12888;SDS011;56848;49.896;11.424;2022-10-31T07:23:33;19.37;;;8.10;;
12888;SDS011;56848;49.896;11.424;2022-10-31T07:25:59;33.33;;;9.53;;
12888;SDS011;56848;49.896;11.424;2022-10-31T07:28:25;35.90;;;7.13;;
12888;SDS011;56848;49.896;11.424;2022-10-31T07:30:52;13.90;;;7.40;;
12888;SDS011;56848;49.896;11.424;2022-10-31T07:33:19;26.73;;;8.80;;
12888;SDS011;56848;49.896;11.424;2022-10-31T07:35:44;22.90;;;8.80;;
12888;SDS011;56848;49.896;11.424;2022-10-31T07:38:11;32.80;;;8.53;;
12888;SDS011;56848;49.896;11.424;2022-10-31T07:40:38;23.67;;;9.77;;
12888;SDS011;56848;49.896;11.424;2022-10-31T07:43:04;34.77;;;8.77;;
12888;SDS011;56848;49.896;11.424;2022-10-31T07:45:30;33.20;;;7.10;;
12888;SDS011;56848;49.896;11.424;2022-10-31T07:47:55;28.80;;;8.03;;
12888;SDS011;56848;49.896;11.424;2022-10-31T07:50:22;49.10;;;8.20;;
12888;SDS011;56848;49.896;11.424;2022-10-31T07:55:32;39.77;;;7.53;;
12888;SDS011;56848;49.896;11.424;2022-10-31T07:57:58;60.63;;;8.87;;
12888;SDS011;56848;49.896;11.424;2022-10-31T08:00:26;141.77;;;8.50;;
12888;SDS011;56848;49.896;11.424;2022-10-31T08:02:59;64.63;;;7.97;;
12888;SDS011;56848;49.896;11.424;2022-10-31T08:05:25;86.77;;;9.30;;
12888;SDS011;56848;49.896;11.424;2022-10-31T08:07:51;172.83;;;9.37;;
12888;SDS011;56848;49.896;11.424;2022-10-31T08:10:17;134.47;;;9.80;;
12888;SDS011;56848;49.896;11.424;2022-10-31T08:12:42;75.47;;;7.77;;
12888;SDS011;56848;49.896;11.424;2022-10-31T08:15:08;148.40;;;10.10;;
12888;SDS011;56848;49.896;11.424;2022-10-31T08:17:35;65.47;;;8.63;;
12888;SDS011;56848;49.896;11.424;2022-10-31T08:20:01;94.93;;;9.40;;
12888;SDS011;56848;49.896;11.424;2022-10-31T08:22:27;96.33;;;8.73;;
12888;SDS011;56848;49.896;11.424;2022-10-31T08:24:53;59.03;;;7.63;;
12888;SDS011;56848;49.896;11.424;2022-10-31T08:27:18;42.90;;;7.73;;
12888;SDS011;56848;49.896;11.424;2022-10-31T08:29:44;19.63;;;7.07;;
12888;SDS011;56848;49.896;11.424;2022-10-31T08:32:09;18.27;;;6.73;;
12888;SDS011;56848;49.896;11.424;2022-10-31T08:34:35;14.07;;;7.43;;
12888;SDS011;56848;49.896;11.424;2022-10-31T08:37:00;9.43;;;7.00;;
12888;SDS011;56848;49.896;11.424;2022-10-31T08:39:26;10.23;;;7.10;;
12888;SDS011;56848;49.896;11.424;2022-10-31T08:41:51;13.37;;;6.47;;
12888;SDS011;56848;49.896;11.424;2022-10-31T08:44:17;10.10;;;6.70;;
12888;SDS011;56848;49.896;11.424;2022-10-31T08:46:42;10.17;;;6.37;;
12888;SDS011;56848;49.896;11.424;2022-10-31T08:49:08;8.97;;;6.43;;
12888;SDS011;56848;49.896;11.424;2022-10-31T08:51:34;9.07;;;6.53;;
12888;SDS011;56848;49.896;11.424;2022-10-31T08:53:59;11.30;;;7.30;;
12888;SDS011;56848;49.896;11.424;2022-10-31T08:56:25;11.43;;;7.00;;
12888;SDS011;56848;49.896;11.424;2022-10-31T08:58:52;7.90;;;6.13;;
12888;SDS011;56848;49.896;11.424;2022-10-31T09:01:18;9.77;;;7.00;;
12888;SDS011;56848;49.896;11.424;2022-10-31T09:03:43;9.60;;;6.70;;
12888;SDS011;56848;49.896;11.424;2022-10-31T09:06:09;13.03;;;7.33;;
12888;SDS011;56848;49.896;11.424;2022-10-31T09:08:35;10.40;;;7.17;;
12888;SDS011;56848;49.896;11.424;2022-10-31T09:11:01;14.53;;;7.83;;
12888;SDS011;56848;49.896;11.424;2022-10-31T09:13:27;10.43;;;7.07;;
12888;SDS011;56848;49.896;11.424;2022-10-31T09:15:53;13.23;;;7.53;;
12888;SDS011;56848;49.896;11.424;2022-10-31T09:18:19;11.03;;;7.93;;
12888;SDS011;56848;49.896;11.424;2022-10-31T09:20:47;13.93;;;7.90;;
12888;SDS011;56848;49.896;11.424;2022-10-31T09:23:14;13.40;;;8.33;;
12888;SDS011;56848;49.896;11.424;2022-10-31T09:25:41;12.63;;;9.07;;
12888;SDS011;56848;49.896;11.424;2022-10-31T09:28:09;16.10;;;8.60;;
12888;SDS011;56848;49.896;11.424;2022-10-31T09:30:37;14.87;;;8.07;;
12888;SDS011;56848;49.896;11.424;2022-10-31T09:33:04;10.57;;;7.53;;
12888;SDS011;56848;49.896;11.424;2022-10-31T09:35:37;10.43;;;7.07;;
12888;SDS011;56848;49.896;11.424;2022-10-31T09:38:04;12.03;;;7.30;;
12888;SDS011;56848;49.896;11.424;2022-10-31T09:45:49;14.20;;;8.30;;
12888;SDS011;56848;49.896;11.424;2022-10-31T09:48:42;14.70;;;7.67;;
12888;SDS011;56848;49.896;11.424;2022-10-31T09:51:28;12.60;;;7.83;;
12888;SDS011;56848;49.896;11.424;2022-10-31T09:54:02;11.40;;;8.03;;
12888;SDS011;56848;49.896;11.424;2022-10-31T09:56:33;13.43;;;7.57;;
12888;SDS011;56848;49.896;11.424;2022-10-31T09:59:01;15.63;;;7.60;;
12888;SDS011;56848;49.896;11.424;2022-10-31T10:01:33;12.80;;;7.17;;
12888;SDS011;56848;49.896;11.424;2022-10-31T10:04:14;20.13;;;8.93;;
12888;SDS011;56848;49.896;11.424;2022-10-31T10:07:02;12.67;;;6.40;;
12888;SDS011;56848;49.896;11.424;2022-10-31T10:09:48;10.23;;;6.60;;
12888;SDS011;56848;49.896;11.424;2022-10-31T10:17:50;8.80;;;6.07;;
12888;SDS011;56848;49.896;11.424;2022-10-31T10:26:18;14.83;;;7.03;;
12888;SDS011;56848;49.896;11.424;2022-10-31T10:28:47;18.67;;;7.70;;
12888;SDS011;56848;49.896;11.424;2022-10-31T10:31:30;17.20;;;6.80;;
12888;SDS011;56848;49.896;11.424;2022-10-31T10:39:14;18.30;;;7.90;;
12888;SDS011;56848;49.896;11.424;2022-10-31T10:41:41;13.03;;;7.33;;
12888;SDS011;56848;49.896;11.424;2022-10-31T10:44:10;20.50;;;7.90;;
12888;SDS011;56848;49.896;11.424;2022-10-31T10:49:37;13.30;;;6.73;;
12888;SDS011;56848;49.896;11.424;2022-10-31T10:55:03;9.40;;;5.87;;
12888;SDS011;56848;49.896;11.424;2022-10-31T10:58:06;11.57;;;6.30;;
12888;SDS011;56848;49.896;11.424;2022-10-31T11:00:42;14.13;;;6.73;;
12888;SDS011;56848;49.896;11.424;2022-10-31T11:03:14;14.13;;;5.90;;
12888;SDS011;56848;49.896;11.424;2022-10-31T11:05:56;11.50;;;6.00;;
12888;SDS011;56848;49.896;11.424;2022-10-31T11:08:30;28.10;;;7.77;;
12888;SDS011;56848;49.896;11.424;2022-10-31T11:11:04;10.37;;;6.07;;
12888;SDS011;56848;49.896;11.424;2022-10-31T11:13:44;13.23;;;6.43;;
12888;SDS011;56848;49.896;11.424;2022-10-31T11:16:13;12.40;;;7.23;;
12888;SDS011;56848;49.896;11.424;2022-10-31T11:18:54;10.47;;;5.47;;
12888;SDS011;56848;49.896;11.424;2022-10-31T11:21:32;17.90;;;6.20;;
12888;SDS011;56848;49.896;11.424;2022-10-31T11:26:29;15.33;;;6.00;;
12888;SDS011;56848;49.896;11.424;2022-10-31T11:28:58;8.43;;;5.80;;
12888;SDS011;56848;49.896;11.424;2022-10-31T11:31:24;13.87;;;6.30;;
12888;SDS011;56848;49.896;11.424;2022-10-31T11:33:58;20.63;;;5.90;;
12888;SDS011;56848;49.896;11.424;2022-10-31T11:36:27;16.20;;;5.87;;
12888;SDS011;56848;49.896;11.424;2022-10-31T11:38:55;12.63;;;5.77;;
12888;SDS011;56848;49.896;11.424;2022-10-31T11:41:29;14.33;;;6.30;;
12888;SDS011;56848;49.896;11.424;2022-10-31T11:44:19;13.30;;;6.27;;
12888;SDS011;56848;49.896;11.424;2022-10-31T11:46:56;9.50;;;6.23;;
12888;SDS011;56848;49.896;11.424;2022-10-31T11:52:05;13.30;;;5.63;;
12888;SDS011;56848;49.896;11.424;2022-10-31T11:54:36;13.60;;;5.90;;
12888;SDS011;56848;49.896;11.424;2022-10-31T12:02:45;13.03;;;7.00;;
12888;SDS011;56848;49.896;11.424;2022-10-31T12:05:17;10.63;;;5.63;;
12888;SDS011;56848;49.896;11.424;2022-10-31T12:07:47;12.60;;;5.53;;
12888;SDS011;56848;49.896;11.424;2022-10-31T12:10:14;11.73;;;5.77;;
12888;SDS011;56848;49.896;11.424;2022-10-31T12:15:46;14.50;;;5.87;;
12888;SDS011;56848;49.896;11.424;2022-10-31T12:24:06;9.10;;;5.93;;
12888;SDS011;56848;49.896;11.424;2022-10-31T12:29:47;14.80;;;6.83;;
12888;SDS011;56848;49.896;11.424;2022-10-31T12:35:05;17.30;;;6.10;;
12888;SDS011;56848;49.896;11.424;2022-10-31T12:54:07;10.57;;;6.80;;
12888;SDS011;56848;49.896;11.424;2022-10-31T12:57:26;18.80;;;6.70;;
12888;SDS011;56848;49.896;11.424;2022-10-31T13:00:07;11.77;;;6.67;;
12888;SDS011;56848;49.896;11.424;2022-10-31T13:05:31;18.83;;;6.70;;
12888;SDS011;56848;49.896;11.424;2022-10-31T13:08:18;13.53;;;6.63;;
12888;SDS011;56848;49.896;11.424;2022-10-31T13:10:49;17.97;;;7.17;;
12888;SDS011;56848;49.896;11.424;2022-10-31T13:16:10;13.63;;;6.50;;
12888;SDS011;56848;49.896;11.424;2022-10-31T13:24:56;12.10;;;6.40;;
12888;SDS011;56848;49.896;11.424;2022-10-31T13:27:41;15.63;;;7.40;;
12888;SDS011;56848;49.896;11.424;2022-10-31T13:30:15;13.73;;;6.50;;
12888;SDS011;56848;49.896;11.424;2022-10-31T13:35:32;10.77;;;6.40;;
12888;SDS011;56848;49.896;11.424;2022-10-31T13:38:26;14.77;;;7.90;;
12888;SDS011;56848;49.896;11.424;2022-10-31T13:44:18;18.30;;;7.90;;
12888;SDS011;56848;49.896;11.424;2022-10-31T13:46:49;21.23;;;8.00;;
12888;SDS011;56848;49.896;11.424;2022-10-31T13:50:02;12.83;;;7.03;;
12888;SDS011;56848;49.896;11.424;2022-10-31T13:54:39;12.37;;;7.27;;
12888;SDS011;56848;49.896;11.424;2022-10-31T13:57:07;12.43;;;6.67;;
12888;SDS011;56848;49.896;11.424;2022-10-31T13:59:51;11.97;;;6.90;;
12888;SDS011;56848;49.896;11.424;2022-10-31T14:02:23;21.13;;;7.80;;
12888;SDS011;56848;49.896;11.424;2022-10-31T14:05:06;15.43;;;6.50;;
12888;SDS011;56848;49.896;11.424;2022-10-31T14:07:54;15.97;;;7.10;;
12888;SDS011;56848;49.896;11.424;2022-10-31T14:15:55;28.40;;;8.77;;
12888;SDS011;56848;49.896;11.424;2022-10-31T14:18:30;18.33;;;7.67;;
12888;SDS011;56848;49.896;11.424;2022-10-31T14:21:13;18.33;;;7.50;;
12888;SDS011;56848;49.896;11.424;2022-10-31T14:23:58;17.20;;;7.33;;
12888;SDS011;56848;49.896;11.424;2022-10-31T14:28:51;29.60;;;7.40;;
12888;SDS011;56848;49.896;11.424;2022-10-31T14:31:35;9.80;;;6.40;;
12888;SDS011;56848;49.896;11.424;2022-10-31T14:34:26;12.03;;;7.27;;
12888;SDS011;56848;49.896;11.424;2022-10-31T14:36:56;19.43;;;7.70;;
12888;SDS011;56848;49.896;11.424;2022-10-31T14:39:56;8.90;;;6.90;;
12888;SDS011;56848;49.896;11.424;2022-10-31T14:45:31;13.87;;;6.67;;
12888;SDS011;56848;49.896;11.424;2022-10-31T14:48:10;25.03;;;9.57;;
12888;SDS011;56848;49.896;11.424;2022-10-31T14:51:02;26.87;;;10.40;;
12888;SDS011;56848;49.896;11.424;2022-10-31T14:53:39;21.27;;;8.67;;
12888;SDS011;56848;49.896;11.424;2022-10-31T14:56:09;18.57;;;6.90;;
12888;SDS011;56848;49.896;11.424;2022-10-31T14:58:40;17.23;;;6.23;;
12888;SDS011;56848;49.896;11.424;2022-10-31T15:01:18;7.33;;;5.60;;
12888;SDS011;56848;49.896;11.424;2022-10-31T15:03:49;13.63;;;6.50;;
12888;SDS011;56848;49.896;11.424;2022-10-31T15:06:16;10.73;;;5.73;;
12888;SDS011;56848;49.896;11.424;2022-10-31T15:13:47;9.23;;;6.10;;
12888;SDS011;56848;49.896;11.424;2022-10-31T15:16:14;12.23;;;6.13;;
12888;SDS011;56848;49.896;11.424;2022-10-31T15:18:53;14.30;;;5.80;;
12888;SDS011;56848;49.896;11.424;2022-10-31T15:21:21;18.10;;;7.37;;
12888;SDS011;56848;49.896;11.424;2022-10-31T15:23:49;18.07;;;7.00;;
12888;SDS011;56848;49.896;11.424;2022-10-31T15:26:21;11.87;;;6.37;;
12888;SDS011;56848;49.896;11.424;2022-10-31T15:29:01;20.77;;;7.10;;
12888;SDS011;56848;49.896;11.424;2022-10-31T15:31:35;16.87;;;6.67;;
12888;SDS011;56848;49.896;11.424;2022-10-31T15:34:05;9.17;;;7.20;;
12888;SDS011;56848;49.896;11.424;2022-10-31T15:36:39;13.40;;;6.97;;
12888;SDS011;56848;49.896;11.424;2022-10-31T15:39:05;20.60;;;8.73;;
12888;SDS011;56848;49.896;11.424;2022-10-31T15:41:49;15.73;;;6.93;;
12888;SDS011;56848;49.896;11.424;2022-10-31T15:44:19;14.50;;;7.50;;
12888;SDS011;56848;49.896;11.424;2022-10-31T15:52:05;12.33;;;7.20;;
12888;SDS011;56848;49.896;11.424;2022-10-31T15:54:31;21.00;;;7.47;;
12888;SDS011;56848;49.896;11.424;2022-10-31T15:56:57;15.57;;;7.00;;
12888;SDS011;56848;49.896;11.424;2022-10-31T15:59:24;16.23;;;7.47;;
12888;SDS011;56848;49.896;11.424;2022-10-31T16:01:55;20.73;;;7.00;;
12888;SDS011;56848;49.896;11.424;2022-10-31T16:04:25;16.50;;;7.80;;
12888;SDS011;56848;49.896;11.424;2022-10-31T16:12:34;15.07;;;7.60;;
12888;SDS011;56848;49.896;11.424;2022-10-31T16:15:01;19.37;;;8.40;;
12888;SDS011;56848;49.896;11.424;2022-10-31T16:17:29;37.23;;;9.70;;
12888;SDS011;56848;49.896;11.424;2022-10-31T16:19:58;21.93;;;9.60;;
12888;SDS011;56848;49.896;11.424;2022-10-31T16:22:36;11.77;;;7.33;;
12888;SDS011;56848;49.896;11.424;2022-10-31T16:25:10;16.37;;;9.30;;
12888;SDS011;56848;49.896;11.424;2022-10-31T16:27:47;19.80;;;9.33;;
12888;SDS011;56848;49.896;11.424;2022-10-31T16:30:48;19.80;;;8.30;;
12888;SDS011;56848;49.896;11.424;2022-10-31T16:35:58;17.87;;;8.57;;
12888;SDS011;56848;49.896;11.424;2022-10-31T16:38:24;15.07;;;8.50;;
12888;SDS011;56848;49.896;11.424;2022-10-31T16:40:50;16.73;;;8.80;;
12888;SDS011;56848;49.896;11.424;2022-10-31T16:43:17;16.83;;;7.93;;
12888;SDS011;56848;49.896;11.424;2022-10-31T16:45:45;22.87;;;9.40;;
12888;SDS011;56848;49.896;11.424;2022-10-31T16:48:13;23.73;;;13.40;;
12888;SDS011;56848;49.896;11.424;2022-10-31T16:50:43;21.33;;;12.03;;
12888;SDS011;56848;49.896;11.424;2022-10-31T16:53:11;21.33;;;10.47;;
12888;SDS011;56848;49.896;11.424;2022-10-31T16:55:43;25.03;;;11.50;;
12888;SDS011;56848;49.896;11.424;2022-10-31T17:01:09;16.97;;;8.93;;
12888;SDS011;56848;49.896;11.424;2022-10-31T17:03:36;18.80;;;10.03;;
12888;SDS011;56848;49.896;11.424;2022-10-31T17:06:02;18.80;;;9.60;;
12888;SDS011;56848;49.896;11.424;2022-10-31T17:08:27;21.27;;;9.20;;
12888;SDS011;56848;49.896;11.424;2022-10-31T17:10:53;17.70;;;8.60;;
12888;SDS011;56848;49.896;11.424;2022-10-31T17:13:21;18.53;;;8.20;;
12888;SDS011;56848;49.896;11.424;2022-10-31T17:18:23;14.60;;;9.27;;
12888;SDS011;56848;49.896;11.424;2022-10-31T17:20:49;20.80;;;9.37;;
12888;SDS011;56848;49.896;11.424;2022-10-31T17:23:15;31.87;;;8.93;;
12888;SDS011;56848;49.896;11.424;2022-10-31T17:25:41;28.10;;;11.40;;
12888;SDS011;56848;49.896;11.424;2022-10-31T17:28:12;12.80;;;7.70;;
12888;SDS011;56848;49.896;11.424;2022-10-31T17:30:38;25.73;;;8.80;;
12888;SDS011;56848;49.896;11.424;2022-10-31T17:33:05;16.80;;;8.90;;
12888;SDS011;56848;49.896;11.424;2022-10-31T17:35:31;23.13;;;8.80;;
12888;SDS011;56848;49.896;11.424;2022-10-31T17:37:57;15.23;;;7.77;;
12888;SDS011;56848;49.896;11.424;2022-10-31T17:40:22;21.93;;;8.23;;
12888;SDS011;56848;49.896;11.424;2022-10-31T17:42:49;23.27;;;7.90;;
12888;SDS011;56848;49.896;11.424;2022-10-31T17:45:15;16.80;;;7.73;;
12888;SDS011;56848;49.896;11.424;2022-10-31T17:47:41;14.83;;;7.90;;
12888;SDS011;56848;49.896;11.424;2022-10-31T17:50:06;15.70;;;8.00;;
12888;SDS011;56848;49.896;11.424;2022-10-31T17:52:32;17.73;;;7.37;;
12888;SDS011;56848;49.896;11.424;2022-10-31T17:54:58;23.50;;;8.83;;
12888;SDS011;56848;49.896;11.424;2022-10-31T17:57:23;20.40;;;9.00;;
12888;SDS011;56848;49.896;11.424;2022-10-31T17:59:49;19.03;;;9.43;;
12888;SDS011;56848;49.896;11.424;2022-10-31T18:02:15;16.50;;;7.83;;
12888;SDS011;56848;49.896;11.424;2022-10-31T18:04:40;11.70;;;7.80;;
12888;SDS011;56848;49.896;11.424;2022-10-31T18:07:06;15.90;;;7.47;;
12888;SDS011;56848;49.896;11.424;2022-10-31T18:09:32;20.23;;;7.00;;
12888;SDS011;56848;49.896;11.424;2022-10-31T18:11:58;13.83;;;6.87;;
12888;SDS011;56848;49.896;11.424;2022-10-31T18:14:23;16.20;;;9.67;;
12888;SDS011;56848;49.896;11.424;2022-10-31T18:16:49;15.73;;;8.20;;
12888;SDS011;56848;49.896;11.424;2022-10-31T18:19:15;13.53;;;6.60;;
12888;SDS011;56848;49.896;11.424;2022-10-31T18:21:41;11.67;;;6.50;;
12888;SDS011;56848;49.896;11.424;2022-10-31T18:24:08;15.27;;;6.97;;
12888;SDS011;56848;49.896;11.424;2022-10-31T18:26:34;14.80;;;6.20;;
12888;SDS011;56848;49.896;11.424;2022-10-31T18:29:00;14.53;;;6.80;;
12888;SDS011;56848;49.896;11.424;2022-10-31T18:31:26;15.70;;;5.60;;
12888;SDS011;56848;49.896;11.424;2022-10-31T18:33:52;21.23;;;7.10;;
12888;SDS011;56848;49.896;11.424;2022-10-31T18:36:19;10.77;;;5.17;;
12888;SDS011;56848;49.896;11.424;2022-10-31T18:38:45;9.43;;;6.20;;
12888;SDS011;56848;49.896;11.424;2022-10-31T18:41:11;13.10;;;6.53;;
12888;SDS011;56848;49.896;11.424;2022-10-31T18:43:37;10.80;;;5.97;;
12888;SDS011;56848;49.896;11.424;2022-10-31T18:46:04;17.90;;;7.03;;
12888;SDS011;56848;49.896;11.424;2022-10-31T18:48:33;15.13;;;7.30;;
12888;SDS011;56848;49.896;11.424;2022-10-31T18:53:28;11.90;;;6.23;;
12888;SDS011;56848;49.896;11.424;2022-10-31T18:55:53;17.80;;;6.27;;
12888;SDS011;56848;49.896;11.424;2022-10-31T18:58:19;19.97;;;9.33;;
12888;SDS011;56848;49.896;11.424;2022-10-31T19:00:45;22.27;;;8.20;;
12888;SDS011;56848;49.896;11.424;2022-10-31T19:03:11;21.60;;;9.27;;
12888;SDS011;56848;49.896;11.424;2022-10-31T19:05:36;10.60;;;5.87;;
12888;SDS011;56848;49.896;11.424;2022-10-31T19:08:02;16.93;;;6.03;;
12888;SDS011;56848;49.896;11.424;2022-10-31T19:10:28;15.07;;;6.67;;
12888;SDS011;56848;49.896;11.424;2022-10-31T19:12:54;15.00;;;7.30;;
12888;SDS011;56848;49.896;11.424;2022-10-31T19:15:20;11.90;;;7.20;;
12888;SDS011;56848;49.896;11.424;2022-10-31T19:17:46;13.37;;;7.17;;
12888;SDS011;56848;49.896;11.424;2022-10-31T19:20:12;14.40;;;7.70;;
12888;SDS011;56848;49.896;11.424;2022-10-31T19:22:38;10.23;;;6.77;;
12888;SDS011;56848;49.896;11.424;2022-10-31T19:25:04;11.23;;;6.70;;
12888;SDS011;56848;49.896;11.424;2022-10-31T19:27:30;13.10;;;6.90;;
12888;SDS011;56848;49.896;11.424;2022-10-31T19:29:55;11.30;;;6.73;;
12888;SDS011;56848;49.896;11.424;2022-10-31T19:32:21;18.93;;;7.70;;
12888;SDS011;56848;49.896;11.424;2022-10-31T19:34:47;18.07;;;9.17;;
12888;SDS011;56848;49.896;11.424;2022-10-31T19:37:12;19.03;;;8.50;;
12888;SDS011;56848;49.896;11.424;2022-10-31T19:39:38;25.10;;;10.33;;
12888;SDS011;56848;49.896;11.424;2022-10-31T19:42:04;23.63;;;13.80;;
12888;SDS011;56848;49.896;11.424;2022-10-31T19:44:31;20.27;;;12.33;;
12888;SDS011;56848;49.896;11.424;2022-10-31T19:46:57;22.20;;;10.90;;
12888;SDS011;56848;49.896;11.424;2022-10-31T19:49:22;18.83;;;10.40;;
12888;SDS011;56848;49.896;11.424;2022-10-31T19:51:48;23.03;;;10.73;;
12888;SDS011;56848;49.896;11.424;2022-10-31T19:54:14;26.17;;;12.70;;
12888;SDS011;56848;49.896;11.424;2022-10-31T19:56:40;25.80;;;11.90;;
12888;SDS011;56848;49.896;11.424;2022-10-31T19:59:06;26.30;;;10.27;;
12888;SDS011;56848;49.896;11.424;2022-10-31T20:01:31;14.90;;;10.03;;
12888;SDS011;56848;49.896;11.424;2022-10-31T20:03:57;20.00;;;12.07;;
12888;SDS011;56848;49.896;11.424;2022-10-31T20:08:51;18.23;;;9.93;;
12888;SDS011;56848;49.896;11.424;2022-10-31T20:11:19;21.27;;;10.30;;
12888;SDS011;56848;49.896;11.424;2022-10-31T20:13:44;24.93;;;9.30;;
12888;SDS011;56848;49.896;11.424;2022-10-31T20:16:10;19.47;;;10.90;;
12888;SDS011;56848;49.896;11.424;2022-10-31T20:18:38;19.90;;;10.00;;
12888;SDS011;56848;49.896;11.424;2022-10-31T20:21:11;24.43;;;9.00;;
12888;SDS011;56848;49.896;11.424;2022-10-31T20:23:38;16.53;;;9.57;;
12888;SDS011;56848;49.896;11.424;2022-10-31T20:26:05;13.70;;;6.87;;
12888;SDS011;56848;49.896;11.424;2022-10-31T20:28:33;19.83;;;7.47;;
12888;SDS011;56848;49.896;11.424;2022-10-31T20:30:59;18.47;;;8.60;;
12888;SDS011;56848;49.896;11.424;2022-10-31T20:33:25;16.93;;;7.20;;
12888;SDS011;56848;49.896;11.424;2022-10-31T20:35:51;19.50;;;7.80;;
12888;SDS011;56848;49.896;11.424;2022-10-31T20:38:17;18.23;;;8.60;;
12888;SDS011;56848;49.896;11.424;2022-10-31T20:40:42;17.13;;;8.20;;
12888;SDS011;56848;49.896;11.424;2022-10-31T20:43:08;17.10;;;8.00;;
12888;SDS011;56848;49.896;11.424;2022-10-31T20:45:35;10.37;;;7.90;;
12888;SDS011;56848;49.896;11.424;2022-10-31T20:48:01;21.43;;;7.43;;
12888;SDS011;56848;49.896;11.424;2022-10-31T20:50:27;15.40;;;8.00;;
12888;SDS011;56848;49.896;11.424;2022-10-31T20:52:53;23.60;;;8.90;;
12888;SDS011;56848;49.896;11.424;2022-10-31T20:55:18;17.10;;;8.50;;
12888;SDS011;56848;49.896;11.424;2022-10-31T20:57:44;15.13;;;8.50;;
12888;SDS011;56848;49.896;11.424;2022-10-31T21:00:10;18.40;;;8.63;;
12888;SDS011;56848;49.896;11.424;2022-10-31T21:02:39;17.30;;;8.23;;
12888;SDS011;56848;49.896;11.424;2022-10-31T21:05:06;21.60;;;8.33;;
12888;SDS011;56848;49.896;11.424;2022-10-31T21:07:36;12.40;;;8.47;;
12888;SDS011;56848;49.896;11.424;2022-10-31T21:10:02;24.33;;;9.37;;
12888;SDS011;56848;49.896;11.424;2022-10-31T21:12:38;18.53;;;8.97;;
12888;SDS011;56848;49.896;11.424;2022-10-31T21:15:08;15.73;;;7.90;;
12888;SDS011;56848;49.896;11.424;2022-10-31T21:17:35;14.97;;;8.50;;
12888;SDS011;56848;49.896;11.424;2022-10-31T21:20:02;27.90;;;10.53;;
12888;SDS011;56848;49.896;11.424;2022-10-31T21:22:28;26.43;;;8.20;;
12888;SDS011;56848;49.896;11.424;2022-10-31T21:24:54;17.83;;;9.37;;
12888;SDS011;56848;49.896;11.424;2022-10-31T21:27:19;17.07;;;9.17;;
12888;SDS011;56848;49.896;11.424;2022-10-31T21:29:45;15.80;;;7.40;;
12888;SDS011;56848;49.896;11.424;2022-10-31T21:32:11;15.30;;;8.27;;
12888;SDS011;56848;49.896;11.424;2022-10-31T21:34:37;20.50;;;7.60;;
12888;SDS011;56848;49.896;11.424;2022-10-31T21:37:02;22.60;;;9.10;;
12888;SDS011;56848;49.896;11.424;2022-10-31T21:39:28;30.63;;;10.80;;
